Data for 07/19/2009

Time Sea-Level Adjusted Pressure Absolute Pressure Temperature Relative Humidity Dew Point   
(mb) (inHg) (mb) (inHg) (C) (F) (%) (C) (F)
00:05 1020 30.12 849 25.07 20.9 69.6 33 4 39.2
00:10 1020 30.12 849 25.07 21.4 70.6 32 4.2 39.6
00:15 1020 30.12 849 25.07 21.5 70.6 33 4.6 40.3
00:20 1020 30.12 849 25.07 21.3 70.3 32 4.2 39.6
00:25 1020 30.12 849 25.07 21.1 70 33 4.3 39.7
00:30 1020 30.12 849 25.07 20.8 69.5 34 4.5 40.1
00:35 1020 30.12 849 25.07 20.7 69.2 35 4.8 40.7
00:40 1020 30.12 849 25.07 20.3 68.6 37 5.3 41.6
00:45 1019 30.09 849 25.07 20 68 37 4.8 40.7
00:50 1019 30.09 849 25.07 20.4 68.8 35 4.6 40.2
00:55 1019 30.09 849 25.07 20.6 69 36 5 41.1
01:00 1019 30.09 849 25.07 20.2 68.4 36 4.9 40.7
01:05 1019 30.09 849 25.07 20.2 68.3 35 4.4 39.9
01:10 1019 30.09 849 25.07 20.3 68.5 34 4.2 39.6
01:15 1019 30.09 849 25.07 20.4 68.6 34 4 39.3
01:20 1019 30.09 849 25.07 20.6 69.1 33 3.8 38.8
01:25 1019 30.09 848 25.04 20.6 69 33 4 39.2
01:30 1019 30.09 848 25.04 20.5 69 34 4.2 39.6
01:35 1019 30.09 848 25.04 20.2 68.3 36 4.7 40.5
01:40 1019 30.09 848 25.04 19.8 67.6 36 4.3 39.8
01:45 1019 30.09 848 25.04 19.7 67.5 36 4.3 39.8
01:50 1019 30.09 848 25.04 19.6 67.3 37 4.5 40.2
01:55 1019 30.09 848 25.04 19.5 67.2 37 4.5 40.2
02:00 1019 30.09 848 25.04 19.7 67.4 36 4.2 39.5
02:05 1019 30.09 848 25.04 19.8 67.6 35 4.1 39.3
02:10 1019 30.09 848 25.04 19.7 67.4 35 4 39.2
02:15 1019 30.09 848 25.04 19.7 67.5 35 3.8 38.9
02:20 1019 30.09 848 25.04 19.7 67.5 35 3.9 39
02:25 1019 30.09 848 25.04 19.8 67.6 35 4.1 39.3
02:30 1019 30.09 848 25.04 19.6 67.3 36 4.1 39.4
02:35 1019 30.09 848 25.04 19.5 67.1 35 4 39.2
02:40 1019 30.09 848 25.04 19.6 67.2 35 3.9 39
02:45 1019 30.09 848 25.04 19.7 67.5 34 3.7 38.6
02:50 1019 30.09 848 25.04 19.9 67.9 35 4.1 39.4
02:55 1019 30.09 848 25.04 19.7 67.4 35 4.1 39.3
03:00 1019 30.09 848 25.04 19.4 66.9 38 4.7 40.5
03:05 1019 30.09 848 25.04 18.9 66.1 39 4.8 40.6
03:10 1019 30.09 848 25.04 18.6 65.4 39 4.3 39.8
03:15 1019 30.09 848 25.04 18.6 65.4 39 4.4 39.8
03:20 1019 30.09 848 25.04 18.6 65.5 38 4.1 39.3
03:25 1019 30.09 848 25.04 18.9 65.9 37 4.2 39.5
03:30 1019 30.09 848 25.04 19 66.2 37 4 39.2
03:35 1019 30.09 848 25.04 19.1 66.4 36 3.9 39.1
03:40 1019 30.09 848 25.04 19 66.1 38 4.6 40.2
03:45 1019 30.09 848 25.04 18.7 65.6 38 4.2 39.6
03:50 1019 30.09 848 25.04 18.9 66.1 36 3.8 38.8
03:55 1019 30.09 848 25.04 19.2 66.5 37 4.4 39.9
04:00 1019 30.09 848 25.04 18.8 65.9 39 4.8 40.7
04:05 1019 30.09 848 25.04 18.5 65.3 41 5 41
04:10 1019 30.09 848 25.04 18.4 65.1 41 5.2 41.3
04:15 1019 30.09 848 25.04 18.1 64.6 44 5.8 42.4
04:20 1019 30.09 848 25.04 17.3 63.2 48 6.4 43.5
04:25 1019 30.09 848 25.04 16.8 62.3 49 6.2 43.2
04:30 1019 30.09 848 25.04 16.8 62.3 47 5.7 42.2
04:35 1019 30.09 849 25.07 17.2 63 45 5.1 41.3
04:40 1019 30.09 848 25.04 17.5 63.4 45 5.6 42.2
04:45 1019 30.09 848 25.04 17.4 63.3 43 4.8 40.7
04:50 1019 30.09 848 25.04 17.8 64.1 46 6 42.9
04:55 1019 30.09 849 25.07 17.8 64 43 5.3 41.5
05:00 1019 30.09 849 25.07 17.6 63.7 45 5.6 42
05:05 1020 30.12 849 25.07 17.5 63.5 44 5.3 41.5
05:10 1020 30.12 849 25.07 17.3 63.2 46 5.8 42.4
05:15 1020 30.12 849 25.07 17.3 63.1 43 4.7 40.5
05:20 1020 30.12 849 25.07 17.7 63.9 44 5.6 42
05:25 1020 30.12 849 25.07 17.3 63.1 51 7.1 44.7
05:30 1020 30.12 849 25.07 16.5 61.7 54 7.3 45.2
05:35 1020 30.12 849 25.07 16.6 61.9 53 7.1 44.8
05:40 1020 30.12 849 25.07 16.6 61.9 54 7.4 45.2
05:45 1020 30.12 849 25.07 16.7 62 55 7.7 45.9
05:50 1020 30.12 849 25.07 16.7 62.1 51 6.7 44.1
05:55 1020 30.12 849 25.07 16.4 61.6 55 7.3 45.2
06:00 1020 30.12 849 25.07 16.1 61 56 7.5 45.4
06:05 1020 30.12 849 25.07 16.1 61 54 6.9 44.4
06:10 1020 30.12 849 25.07 16.6 61.8 53 7.1 44.7
06:15 1020 30.12 849 25.07 16.8 62.2 54 7.5 45.5
06:20 1020 30.12 849 25.07 15.5 59.8 59 7.5 45.5
06:25 1020 30.12 849 25.07 15.1 59.1 58 6.9 44.4
06:30 1020 30.12 849 25.07 15.2 59.4 56 6.6 43.9
06:35 1020 30.12 849 25.07 15.6 60 52 5.9 42.6
06:40 1020 30.12 849 25.07 15.8 60.4 51 5.9 42.6
06:45 1020 30.12 849 25.07 16.1 61 49 5.6 42.1
06:50 1020 30.12 849 25.07 16.4 61.6 51 6.3 43.4
06:55 1020 30.12 849 25.07 16.2 61.2 52 6.5 43.6
07:00 1020 30.12 849 25.07 16.3 61.4 51 6.2 43.2
07:05 1020 30.12 849 25.07 16.3 61.3 52 6.5 43.8
07:10 1020 30.12 849 25.07 16.3 61.4 50 5.9 42.7
07:15 1020 30.12 849 25.07 17 62.6 47 5.7 42.2
07:20 1020 30.12 849 25.07 17.5 63.4 48 6.3 43.4
07:25 1020 30.12 849 25.07 17.4 63.3 48 6.3 43.4
07:30 1020 30.12 849 25.07 17.6 63.7 46 6.1 43
07:35 1020 30.12 849 25.07 18 64.3 47 6.7 44.1
07:40 1020 30.12 849 25.07 18.3 64.9 49 7.7 45.8
07:45 1020 30.12 849 25.07 18.5 65.3 47 7.1 44.8
07:50 1020 30.12 849 25.07 18.9 66.1 49 8.2 46.8
07:55 1020 30.12 849 25.07 19.2 66.5 48 7.9 46.2
08:00 1020 30.12 849 25.07 19.1 66.3 49 8.4 47
08:05 1020 30.12 849 25.07 19.6 67.2 45 7.4 45.4
08:10 1020 30.12 849 25.07 20.4 68.7 42 7.1 44.7
08:15 1020 30.12 849 25.07 20.4 68.8 44 7.9 46.2
08:20 1020 30.12 849 25.07 20.5 68.9 44 7.9 46.1
08:25 1020 30.12 849 25.07 20.8 69.5 44 8.2 46.8
08:30 1020 30.12 849 25.07 21.1 69.9 44 8.6 47.5
08:35 1020 30.12 849 25.07 21.2 70.1 46 9.3 48.8
08:40 1020 30.12 849 25.07 20.7 69.2 46 8.7 47.6
08:45 1020 30.12 849 25.07 20.3 68.5 45 8.1 46.5
08:50 1020 30.12 850 25.1 20.6 69 44 8.1 46.6
08:55 1020 30.12 850 25.1 21 69.9 43 8.3 46.9
09:00 1020 30.12 850 25.1 21.2 70.2 44 8.5 47.3
09:05 1020 30.12 850 25.1 22 71.6 40 8.1 46.6
09:10 1020 30.12 850 25.1 22.6 72.6 38 7.9 46.2
09:15 1020 30.12 850 25.1 22.3 72.1 41 8.7 47.7
09:20 1021 30.15 850 25.1 22 71.6 40 8 46.4
09:25 1021 30.15 850 25.1 22.8 73 37 7.6 45.7
09:30 1020 30.12 850 25.1 23.4 74 34 6.8 44.2
09:35 1020 30.12 850 25.1 23.8 74.8 35 7.6 45.7
09:40 1020 30.12 850 25.1 24 75.2 35 7.6 45.7
09:45 1020 30.12 850 25.1 24.4 75.8 37 9.1 48.4
09:50 1020 30.12 850 25.1 23.7 74.7 36 7.8 46
09:55 1020 30.12 849 25.07 23.3 73.9 37 7.9 46.2
10:00 1020 30.12 849 25.07 23.2 73.8 36 7.6 45.6
10:05 1020 30.12 849 25.07 22.9 73.1 39 8.5 47.4
10:10 1020 30.12 849 25.07 23 73.3 38 8.2 46.8
10:15 1020 30.12 849 25.07 23.4 74.2 35 7.3 45.1
10:20 1020 30.12 849 25.07 24 75.1 33 7 44.7
10:25 1020 30.12 849 25.07 24.1 75.3 37 8.7 47.6
10:30 1020 30.12 849 25.07 23.9 75 36 8.2 46.7
10:35 1020 30.12 849 25.07 24 75.1 35 7.8 46.1
10:40 1020 30.12 849 25.07 24.1 75.4 36 8.5 47.3
10:45 1020 30.12 849 25.07 24.5 76 34 7.9 46.1
10:50 1020 30.12 849 25.07 24.1 75.4 35 7.9 46.2
10:55 1020 30.12 849 25.07 25.1 77.1 35 8.7 47.6
11:00 1020 30.12 849 25.07 25.4 77.7 34 8.6 47.5
11:05 1020 30.12 849 25.07 25.2 77.4 33 7.8 46.1
11:10 1020 30.12 849 25.07 25.5 77.9 32 8 46.5
11:15 1020 30.12 849 25.07 25.8 78.5 28 6.2 43.1
11:20 1020 30.12 849 25.07 26.5 79.7 23 3.9 38.9
11:25 1020 30.12 849 25.07 26.7 80 22 3.5 38.3
11:30 1020 30.12 849 25.07 26.2 79.1 22 2.9 37.2
11:35 1020 30.12 849 25.07 25.4 77.6 23 2.9 37.2
11:40 1020 30.12 849 25.07 25 77.1 25 3.7 38.6
11:45 1020 30.12 849 25.07 25 76.9 26 4.5 40.1
11:50 1020 30.12 849 25.07 25.3 77.5 25 4.2 39.6
11:55 1020 30.12 849 25.07 25.5 77.9 27 5.6 42
12:00 1020 30.12 849 25.07 25.6 78 29 6.2 43.2
12:05 1020 30.12 849 25.07 25.3 77.5 33 7.9 46.2
12:10 1020 30.12 849 25.07 24.5 76.2 34 7.7 45.9
12:15 1020 30.12 849 25.07 24.9 76.7 33 7.5 45.6
12:20 1020 30.12 849 25.07 25 76.9 33 7.9 46.2
12:25 1020 30.12 849 25.07 24.9 76.9 33 7.6 45.6
12:30 1019 30.09 849 25.07 24.8 76.6 31 6.8 44.3
12:35 1019 30.09 849 25.07 24.7 76.5 31 6.5 43.7
12:40 1019 30.09 848 25.04 24.9 76.8 31 6.8 44.2
12:45 1019 30.09 848 25.04 24.8 76.6 31 6.9 44.5
12:50 1019 30.09 848 25.04 24.7 76.4 30 6.2 43.1
12:55 1019 30.09 848 25.04 24.9 76.7 28 5.5 41.9
13:00 1019 30.09 848 25.04 25.1 77.1 29 5.8 42.5
13:05 1019 30.09 848 25.04 25.8 78.5 28 6.1 43.1
13:10 1019 30.09 848 25.04 26 78.7 28 6.6 43.8
13:15 1019 30.09 848 25.04 26.5 79.7 25 5.3 41.6
13:20 1019 30.09 848 25.04 26.4 79.5 27 6.1 43
13:25 1019 30.09 848 25.04 26.6 79.8 26 5.7 42.2
13:30 1019 30.09 848 25.04 26.6 79.8 26 6 42.7
13:35 1019 30.09 848 25.04 26.7 80.1 26 5.9 42.7
13:40 1019 30.09 848 25.04 27.1 80.7 25 5.8 42.4
13:45 1019 30.09 848 25.04 26.3 79.3 27 5.9 42.6
13:50 1019 30.09 848 25.04 26.3 79.4 27 6 42.7
13:55 1019 30.09 848 25.04 26.8 80.2 26 6 42.7
14:00 1018 30.06 848 25.04 27.3 81.2 25 5.7 42.2
14:05 1018 30.06 848 25.04 28.4 83.1 25 6.5 43.7
14:10 1018 30.06 847 25.01 28.8 83.9 23 6.1 43
14:15 1018 30.06 847 25.01 28.7 83.7 24 6.3 43.3
14:20 1018 30.06 847 25.01 28.8 83.9 24 6.5 43.6
14:25 1018 30.06 847 25.01 29.4 85 23 6.2 43.2
14:30 1018 30.06 847 25.01 29.7 85.5 22 6.2 43.1
14:35 1018 30.06 847 25.01 29.3 84.8 23 6.3 43.3
14:40 1018 30.06 847 25.01 29.7 85.4 22 5.9 42.6
14:45 1018 30.06 847 25.01 29.2 84.5 24 6.7 44.1
14:50 1018 30.06 847 25.01 29.8 85.6 22 6.1 42.9
14:55 1018 30.06 847 25.01 29.5 85.1 22 6.1 42.9
15:00 1018 30.06 847 25.01 29.8 85.7 21 5.5 41.9
15:05 1018 30.06 847 25.01 29.3 84.7 23 6.2 43.2
15:10 1018 30.06 847 25.01 29.2 84.6 23 6.1 43
15:15 1018 30.06 847 25.01 29.8 85.6 23 6.8 44.3
15:20 1018 30.06 847 25.01 29.9 85.8 22 6.1 42.9
15:25 1018 30.06 847 25.01 30.1 86.1 21 5.6 42.1
15:30 1017 30.03 847 25.01 29.9 85.7 22 6 42.9
15:35 1017 30.03 847 25.01 30.8 87.5 20 5.6 42.1
15:40 1017 30.03 847 25.01 30.4 86.7 20 5.6 42
15:45 1017 30.03 846 24.98 30.6 87 22 6.6 43.9
15:50 1017 30.03 846 24.98 29.8 85.6 22 6.1 43
15:55 1017 30.03 846 24.98 30.2 86.4 21 5.8 42.5
16:00 1017 30.03 846 24.98 30.3 86.5 20 4.9 40.8
16:05 1017 30.03 846 24.98 31.5 88.7 19 5.5 41.9
16:10 1017 30.03 846 24.98 31.9 89.5 18 5.3 41.6
16:15 1017 30.03 846 24.98 32 89.6 20 6.6 43.8
16:20 1017 30.03 846 24.98 31.5 88.6 20 6 42.8
16:25 1017 30.03 846 24.98 30.4 86.7 22 6.4 43.6
16:30 1017 30.03 846 24.98 30.5 87 21 5.9 42.5
16:35 1017 30.03 846 24.98 31.4 88.5 20 6.3 43.4
16:40 1017 30.03 846 24.98 31.2 88.1 20 6.3 43.3
16:45 1017 30.03 846 24.98 30.8 87.4 20 5.9 42.7
16:50 1016 30 846 24.98 31 87.9 19 5.1 41.1
16:55 1016 30 846 24.98 31.2 88.2 20 5.7 42.2
17:00 1016 30 846 24.98 31.1 88 20 5.7 42.3
17:05 1016 30 846 24.98 31.4 88.5 19 5.5 41.9
17:10 1016 30 846 24.98 31.5 88.7 19 5.1 41.1
17:15 1016 30 846 24.98 32.1 89.7 18 5.4 41.6
17:20 1016 30 846 24.98 31.8 89.3 20 6.1 43.1
17:25 1017 30.03 846 24.98 31.9 89.4 19 6 42.8
17:30 1017 30.03 846 24.98 31.8 89.2 20 6.1 43
17:35 1017 30.03 846 24.98 31.8 89.2 18 4.6 40.2
17:40 1016 30 846 24.98 32 89.6 18 4.9 40.8
17:45 1016 30 846 24.98 31.7 89.1 19 5.7 42.2
17:50 1017 30.03 846 24.98 30.8 87.5 20 5.9 42.7
17:55 1017 30.03 846 24.98 30 86 22 6.4 43.5
18:00 1016 30 846 24.98 30.2 86.4 22 6.2 43.2
18:05 1016 30 846 24.98 30.7 87.3 20 5.7 42.2
18:10 1016 30 846 24.98 30.4 86.7 19 4.6 40.2
18:15 1016 30 846 24.98 30.5 86.8 16 1.8 35.3
18:20 1016 30 846 24.98 30.5 86.8 17 2.8 37
18:25 1016 30 846 24.98 30.3 86.5 17 2.7 36.8
18:30 1016 30 846 24.98 29.9 85.9 17 3 37.4
18:35 1016 30 846 24.98 30.1 86.1 16 1.8 35.3
18:40 1016 30 846 24.98 30.1 86.2 16 2.2 36
18:45 1016 30 846 24.98 29.9 85.7 17 2.7 36.9
18:50 1017 30.03 846 24.98 29.8 85.7 17 2.6 36.7
18:55 1017 30.03 846 24.98 29.6 85.4 16 1.9 35.4
19:00 1016 30 846 24.98 29.4 85 18 2.8 37.1
19:05 1016 30 846 24.98 29 84.3 19 3.2 37.7
19:10 1016 30 846 24.98 28.7 83.6 20 3.6 38.4
19:15 1016 30 846 24.98 28.3 83 21 4.3 39.7
19:20 1017 30.03 846 24.98 28.1 82.6 21 3.9 39
19:25 1017 30.03 846 24.98 27.9 82.2 21 4 39.2
19:30 1017 30.03 846 24.98 27.7 81.9 22 4.4 39.9
19:35 1017 30.03 846 24.98 27.7 81.8 22 4.5 40.1
19:40 1017 30.03 846 24.98 27.7 81.8 22 4.6 40.3
19:45 1017 30.03 846 24.98 27.6 81.7 23 4.7 40.5
19:50 1017 30.03 846 24.98 27.4 81.4 23 4.5 40.2
19:55 1017 30.03 846 24.98 27.3 81.2 22 4.3 39.8
20:00 1017 30.03 846 24.98 27.2 81 23 4.4 40
20:05 1017 30.03 846 24.98 27.1 80.7 22 4 39.3
20:10 1017 30.03 846 24.98 26.8 80.3 22 3.4 38.2
20:15 1017 30.03 846 24.98 26.6 80 21 3.1 37.6
20:20 1017 30.03 847 25.01 26.5 79.8 21 2.4 36.4
20:25 1017 30.03 847 25.01 26.5 79.7 21 2.5 36.4
20:30 1018 30.06 847 25.01 26.4 79.5 21 2.5 36.5
20:35 1018 30.06 847 25.01 26.2 79.1 21 2.6 36.6
20:40 1018 30.06 847 25.01 26 78.8 22 2.9 37.3
20:45 1018 30.06 847 25.01 25.8 78.5 22 2.8 37
20:50 1018 30.06 847 25.01 25.6 78 23 3.2 37.7
20:55 1018 30.06 847 25.01 25.4 77.7 22 2.6 36.8
21:00 1018 30.06 847 25.01 25.3 77.5 23 2.9 37.3
21:05 1018 30.06 847 25.01 25.1 77.2 23 2.9 37.1
21:10 1018 30.06 847 25.01 24.9 76.9 23 2.3 36.2
21:15 1018 30.06 847 25.01 24.8 76.7 22 2.1 35.9
21:20 1018 30.06 848 25.04 24.7 76.4 22 2.1 35.7
21:25 1018 30.06 848 25.04 24.5 76.1 22 1.7 35.1
21:30 1018 30.06 848 25.04 24.4 75.9 22 1.7 35.1
21:35 1018 30.06 848 25.04 24.3 75.7 23 2.2 36
21:40 1019 30.09 848 25.04 24.1 75.4 23 2.1 35.8
21:45 1019 30.09 848 25.04 23.9 75 25 2.8 37.1
21:50 1019 30.09 848 25.04 23.4 74 33 6.4 43.6
21:55 1019 30.09 848 25.04 21.7 71.1 34 5.1 41.3
22:00 1019 30.09 848 25.04 21.2 70.2 32 3.9 39.1
22:05 1019 30.09 848 25.04 21.3 70.3 32 3.9 39.1
22:10 1019 30.09 848 25.04 21 69.9 33 4.5 40
22:15 1019 30.09 849 25.07 20.6 69.1 34 4.2 39.5
22:20 1019 30.09 849 25.07 20.6 69 33 3.8 38.8
22:25 1019 30.09 849 25.07 20.6 69.1 33 4 39.2
22:30 1019 30.09 849 25.07 20.5 68.8 32 3.6 38.4
22:35 1020 30.12 849 25.07 20.4 68.7 31 3 37.4
22:40 1020 30.12 849 25.07 20.7 69.3 29 2.1 35.9
22:45 1020 30.12 849 25.07 20.9 69.6 29 2.5 36.5
22:50 1020 30.12 849 25.07 21 69.8 28 2.1 35.7
22:55 1020 30.12 849 25.07 21 69.8 28 2 35.6
23:00 1020 30.12 849 25.07 20.9 69.7 27 1.5 34.8
23:05 1020 30.12 849 25.07 20.9 69.6 26 1 33.7
23:10 1020 30.12 849 25.07 21 69.7 27 1.3 34.4
23:15 1020 30.12 849 25.07 21 69.8 27 1.3 34.3
23:20 1020 30.12 849 25.07 20.8 69.4 26 0.9 33.6
23:25 1020 30.12 849 25.07 20.6 69 27 1 33.7
23:30 1020 30.12 849 25.07 20.5 68.8 27 1.1 34
23:35 1020 30.12 849 25.07 20.1 68.2 28 1.4 34.6
23:40 1020 30.12 850 25.1 19.7 67.4 29 1.1 34
23:45 1020 30.12 850 25.1 19.6 67.2 27 0.2 32.3
23:50 1020 30.12 850 25.1 19.6 67.2 29 1.2 34.2
23:55 1020 30.12 850 25.1 19.1 66.4 29 0.9 33.6
24:00 1021 30.15 850 25.1 19 66.2 30 1.3 34.3